Time;durP1;ratioP1;P1;durP2;ratioP2;P2;SDS_P1;SDS_P2;PMS_P1;PMS_P2;Temp;Humidity;BMP_temperature;BMP_pressure;BME280_temperature;BME280_humidity;BME280_pressure;Samples;Min_cycle;Max_cycle;Signal;HPM_P1;HPM_P2
2021/06/01 00:00:11;;;;;;;14.87;6.43;;;;;;;12.22;44.35;100412.64;126493;1098;102965;-81
2021/06/01 00:03:19;;;;;;;10.83;6.60;;;;;;;12.17;44.76;100413.69;126624;1098;102990;-81
2021/06/01 00:06:07;;;;;;;12.40;6.73;;;;;;;12.11;45.03;100414.78;126508;1098;102968;-81
2021/06/01 00:08:54;;;;;;;11.33;7.23;;;;;;;12.07;45.02;100413.19;126596;1093;103428;-81
2021/06/01 00:11:42;;;;;;;9.57;6.53;;;;;;;12.03;45.18;100403.75;126564;1098;101386;-81
2021/06/01 00:14:31;;;;;;;14.53;7.57;;;;;;;11.97;45.84;100407.41;126558;1098;102943;-81
2021/06/01 00:17:19;;;;;;;10.63;6.37;;;;;;;11.93;45.94;100408.44;126550;1098;102753;-81
2021/06/01 00:20:10;;;;;;;11.40;6.50;;;;;;;11.88;45.70;100407.75;126587;1099;102926;-81
2021/06/01 00:22:58;;;;;;;9.47;6.70;;;;;;;11.86;46.40;100409.57;126526;1098;101391;-81
2021/06/01 00:25:45;;;;;;;;;;;;;;;11.80;46.84;100410.61;126636;1098;102360;-81
2021/06/01 00:28:40;;;;;;;12.73;6.97;;;;;;;11.74;46.98;100409.95;126557;1098;102931;-81
2021/06/01 00:31:28;;;;;;;10.57;7.10;;;;;;;11.68;47.15;100412.78;126577;1098;103007;-81
2021/06/01 00:34:15;;;;;;;14.10;7.70;;;;;;;11.63;47.54;100412.91;126536;1100;103043;-81
2021/06/01 00:37:04;;;;;;;10.30;7.27;;;;;;;11.60;47.64;100409.56;126524;1098;102062;-81
2021/06/01 00:39:52;;;;;;;16.40;7.40;;;;;;;11.56;48.00;100407.96;126557;1098;103283;-81
2021/06/01 00:42:40;;;;;;;14.17;7.93;;;;;;;11.53;48.01;100408.06;126550;1099;103103;-81
2021/06/01 00:45:28;;;;;;;11.13;7.73;;;;;;;11.49;48.28;100405.56;126569;1098;102954;-80
2021/06/01 00:48:17;;;;;;;14.37;8.30;;;;;;;11.46;48.44;100403.03;126602;1098;103059;-80
2021/06/01 00:51:04;;;;;;;;;;;;;;;11.43;48.37;100405.75;126661;1098;102936;-81
2021/06/01 00:53:52;;;;;;;14.73;7.77;;;;;;;11.39;48.57;100404.15;126662;1098;102988;-81
2021/06/01 00:56:41;;;;;;;13.87;8.63;;;;;;;11.37;48.70;100405.11;126582;1098;102939;-80
2021/06/01 00:59:30;;;;;;;12.20;8.43;;;;;;;11.35;48.62;100402.55;126608;1093;102956;-81
2021/06/01 01:02:17;;;;;;;;;;;;;;;11.34;48.84;100399.98;126565;1098;102948;-80
2021/06/01 01:05:08;;;;;;;13.17;8.27;;;;;;;11.32;48.57;100400.05;126552;1098;102953;-80
2021/06/01 01:08:21;;;;;;;12.63;8.10;;;;;;;11.31;49.26;100395.73;126703;1098;103106;-80
2021/06/01 01:11:25;;;;;;;15.13;8.77;;;;;;;11.29;49.18;100392.28;126550;1099;102952;-80
2021/06/01 01:14:22;;;;;;;13.20;8.40;;;;;;;11.28;49.63;100400.17;126696;1093;101899;-81
2021/06/01 01:17:22;;;;;;;14.03;8.37;;;;;;;11.24;49.85;100396.81;126806;1098;102760;-80
2021/06/01 01:20:18;;;;;;;13.67;7.80;;;;;;;11.19;49.83;100401.34;126645;1099;102952;-80
2021/06/01 01:23:17;;;;;;;14.70;8.33;;;;;;;11.14;50.18;100401.49;126715;1098;102924;-80
2021/06/01 01:26:54;;;;;;;16.97;9.03;;;;;;;11.12;50.68;100399.80;126545;1098;102971;-80
2021/06/01 01:29:45;;;;;;;14.90;8.40;;;;;;;11.05;50.88;100398.30;126542;1101;102928;-79
2021/06/01 01:32:57;;;;;;;15.30;9.10;;;;;;;11.01;51.19;100404.53;126592;1099;102937;-81
2021/06/01 01:35:48;;;;;;;13.20;8.80;;;;;;;10.97;50.94;100390.73;126525;1098;103894;-80
2021/06/01 01:38:39;;;;;;;16.37;9.43;;;;;;;10.93;51.32;100398.68;126640;1098;103018;-79
2021/06/01 01:41:27;;;;;;;15.17;8.93;;;;;;;10.92;51.34;100399.58;126487;1098;103122;-79
2021/06/01 01:44:20;;;;;;;16.07;9.20;;;;;;;10.94;51.43;100387.34;126473;1098;102998;-81
2021/06/01 01:48:58;;;;;;;16.30;9.40;;;;;;;10.93;51.84;100388.24;126393;1098;103051;-79
2021/06/01 01:50:19;;;;;;;15.57;9.17;;;;;;;10.93;51.72;100390.84;126634;1098;102938;-81
2021/06/01 01:53:11;;;;;;;15.70;9.23;;;;;;;10.92;51.87;100387.39;126538;1101;103032;-81
2021/06/01 01:55:59;;;;;;;17.40;10.33;;;;;;;10.95;52.15;100384.71;126479;1098;103025;-81
2021/06/01 01:58:50;;;;;;;15.47;9.10;;;;;;;10.98;52.36;100383.75;126730;1098;103101;-80
2021/06/01 02:01:41;;;;;;;15.90;9.50;;;;;;;11.01;52.57;100389.73;126646;1098;102955;-80
2021/06/01 02:04:32;;;;;;;15.90;9.13;;;;;;;11.03;52.55;100382.70;126592;1098;103014;-80
2021/06/01 02:07:20;;;;;;;15.10;9.03;;;;;;;11.04;52.39;100381.79;126617;1093;103021;-80
2021/06/01 02:10:12;;;;;;;15.00;9.00;;;;;;;11.07;52.62;100386.05;126513;1100;102925;-80
2021/06/01 02:13:04;;;;;;;14.83;8.80;;;;;;;11.09;52.85;100384.25;126705;1098;102953;-80
2021/06/01 02:15:57;;;;;;;13.43;9.00;;;;;;;11.12;52.58;100382.38;126677;1098;103101;-80
2021/06/01 02:18:46;;;;;;;16.85;10.30;;;;;;;11.14;52.54;100382.37;126640;1101;102928;-80
2021/06/01 02:25:24;;;;;;;19.05;9.53;;;;;;;11.16;52.72;100375.34;126351;1101;103192;-80
2021/06/01 02:28:28;;;;;;;14.60;9.73;;;;;;;11.19;52.79;100378.70;126505;1101;103261;-80
2021/06/01 02:31:20;;;;;;;16.07;9.90;;;;;;;11.22;52.75;100376.88;126099;1104;102990;-80
2021/06/01 02:34:12;;;;;;;16.30;10.00;;;;;;;11.23;52.73;100371.61;126110;1104;102952;-81
2021/06/01 02:37:01;;;;;;;14.90;9.00;;;;;;;11.28;52.92;100377.52;126165;1102;102992;-81
2021/06/01 02:39:48;;;;;;;18.23;9.90;;;;;;;11.30;52.94;100375.71;126195;1101;103267;-81
2021/06/01 02:42:38;;;;;;;15.67;9.23;;;;;;;11.33;52.67;100366.95;126243;1101;102944;-81
2021/06/01 02:45:26;;;;;;;14.77;10.13;;;;;;;11.35;53.00;100376.44;126060;1104;102937;-81
2021/06/01 02:48:17;;;;;;;16.43;9.87;;;;;;;11.37;52.59;100374.63;125936;1104;103098;-81
2021/06/01 02:51:15;;;;;;;14.30;10.30;;;;;;;11.38;52.57;100365.88;126087;1101;102951;-80
2021/06/01 02:54:06;;;;;;;17.07;10.53;;;;;;;11.39;52.37;100367.59;126102;1101;103001;-80
2021/06/01 02:56:54;;;;;;;15.57;9.73;;;;;;;11.43;52.49;100360.50;126224;1102;103066;-80
2021/06/01 02:59:42;;;;;;;17.03;9.97;;;;;;;11.45;52.35;100369.98;126190;1101;103153;-80
2021/06/01 03:02:31;;;;;;;16.57;10.00;;;;;;;11.48;52.35;100367.27;126463;1093;103062;-80
2021/06/01 03:05:20;;;;;;;14.97;10.00;;;;;;;11.50;52.47;100362.02;126472;1101;103012;-80
2021/06/01 03:08:19;;;;;;;14.27;9.73;;;;;;;11.57;52.51;100367.88;126621;1098;102955;-80
2021/06/01 03:11:08;;;;;;;15.53;9.27;;;;;;;11.59;52.39;100364.30;126532;1098;102955;-80
2021/06/01 03:13:56;;;;;;;15.93;10.43;;;;;;;11.63;52.14;100372.88;126464;1098;102955;-79
2021/06/01 03:16:44;;;;;;;18.00;9.93;;;;;;;11.69;52.27;100370.07;126547;1098;102968;-79
2021/06/01 03:19:33;;;;;;;16.57;10.60;;;;;;;11.75;52.20;100375.08;126543;1099;103316;-79
2021/06/01 03:22:21;;;;;;;15.30;9.75;;;;;;;11.79;52.41;100377.55;126402;1098;102955;-79
2021/06/01 03:25:09;;;;;;;;;;;;;;;11.84;52.60;100368.69;126491;1093;103147;-80
2021/06/01 03:27:57;;;;;;;;;;;;;;;11.88;52.66;100365.09;126790;1098;102927;-80
2021/06/01 03:30:47;;;;;;;18.03;9.53;;;;;;;11.91;52.43;100365.82;126635;1098;101690;-80
2021/06/01 03:33:35;;;;;;;16.97;9.97;;;;;;;11.98;52.05;100355.98;126635;1098;102975;-80
2021/06/01 03:36:24;;;;;;;13.97;10.20;;;;;;;12.05;52.04;100353.11;126568;1094;101748;-80
2021/06/01 03:39:12;;;;;;;15.23;10.17;;;;;;;12.16;51.88;100359.70;126560;1099;103079;-80
2021/06/01 03:42:01;;;;;;;17.77;11.13;;;;;;;12.23;51.71;100353.34;126603;1098;103003;-80
2021/06/01 03:44:49;;;;;;;16.37;11.43;;;;;;;12.31;51.60;100351.29;126593;1098;102952;-79
2021/06/01 03:47:37;;;;;;;17.57;12.13;;;;;;;12.39;51.65;100357.09;126374;1093;102969;-80
2021/06/01 03:50:25;;;;;;;14.53;10.70;;;;;;;12.43;51.44;100348.22;126422;1093;103166;-80
2021/06/01 03:53:14;;;;;;;16.43;10.40;;;;;;;12.54;51.44;100353.88;126639;1098;103083;-80
2021/06/01 03:56:02;;;;;;;14.97;10.47;;;;;;;12.61;51.22;100351.89;126564;1098;103001;-81
2021/06/01 03:58:50;;;;;;;16.80;10.90;;;;;;;12.68;51.02;100348.96;126579;1100;102990;-80
2021/06/01 04:01:38;;;;;;;16.90;10.57;;;;;;;12.74;50.98;100352.24;126538;1101;103084;-80
2021/06/01 04:04:26;;;;;;;15.90;10.43;;;;;;;12.86;50.98;100351.77;126591;1093;102753;-80
2021/06/01 04:07:13;;;;;;;15.67;10.63;;;;;;;12.97;50.89;100349.59;126470;1093;101388;-80
2021/06/01 04:10:02;;;;;;;16.90;11.00;;;;;;;13.07;50.40;100355.28;126569;1098;103132;-80
2021/06/01 04:12:50;;;;;;;17.23;11.60;;;;;;;13.11;50.17;100347.27;126650;1098;103040;-80
2021/06/01 04:15:39;;;;;;;16.10;10.70;;;;;;;13.17;50.40;100348.77;126619;1101;103484;-81
2021/06/01 04:18:28;;;;;;;13.70;10.10;;;;;;;13.22;50.08;100337.22;126557;1098;103158;-80
2021/06/01 04:21:17;;;;;;;15.93;10.57;;;;;;;13.32;50.28;100345.55;126569;1093;103001;-81
2021/06/01 04:24:07;;;;;;;17.97;11.00;;;;;;;13.38;50.12;100347.91;126597;1098;103178;-81
2021/06/01 04:26:57;;;;;;;17.80;10.40;;;;;;;13.40;49.92;100345.22;126595;1098;103100;-80
2021/06/01 04:29:45;;;;;;;15.30;10.57;;;;;;;13.42;49.80;100346.00;126615;1100;102923;-80
2021/06/01 04:32:33;;;;;;;17.90;10.50;;;;;;;13.43;49.97;100345.09;126577;1100;102899;-80
2021/06/01 04:35:21;;;;;;;16.40;10.93;;;;;;;13.42;49.76;100346.00;126596;1098;103084;-80
2021/06/01 04:38:10;;;;;;;15.07;10.90;;;;;;;13.44;49.93;100346.79;126528;1099;101295;-80
2021/06/01 04:40:58;;;;;;;17.37;11.47;;;;;;;13.45;49.96;100349.34;126557;1098;101928;-80
2021/06/01 04:43:45;;;;;;;13.93;10.47;;;;;;;13.42;49.88;100346.00;126556;1098;101775;-80
2021/06/01 04:46:34;;;;;;;17.43;10.47;;;;;;;13.40;50.21;100347.84;126557;1099;102934;-80
2021/06/01 04:49:22;;;;;;;17.90;11.07;;;;;;;13.42;50.04;100351.24;126639;1098;102928;-81
2021/06/01 04:52:11;;;;;;;16.43;11.37;;;;;;;13.40;50.22;100347.84;126598;1093;103065;-80
2021/06/01 04:54:58;;;;;;;16.70;10.77;;;;;;;13.40;50.49;100348.69;126642;1098;102927;-81
2021/06/01 04:57:47;;;;;;;16.27;10.97;;;;;;;13.45;50.45;100346.72;126599;1098;103157;-81
2021/06/01 05:00:35;;;;;;;14.63;10.77;;;;;;;13.47;50.61;100346.69;126622;1098;103080;-81
2021/06/01 05:03:23;;;;;;;16.17;11.00;;;;;;;13.52;50.72;100347.33;126626;1098;103106;-80
2021/06/01 05:06:11;;;;;;;19.67;10.87;;;;;;;13.64;50.54;100351.17;126636;1099;102994;-80
2021/06/01 05:08:58;;;;;;;16.00;10.63;;;;;;;13.74;50.72;100358.59;126601;1098;103110;-81
2021/06/01 05:11:47;;;;;;;19.05;11.05;;;;;;;13.88;50.50;100355.38;126611;1093;102140;-81
2021/06/01 05:14:35;;;;;;;17.37;12.17;;;;;;;13.99;50.23;100360.13;126454;1100;102801;-81
2021/06/01 05:17:24;;;;;;;17.23;11.43;;;;;;;14.06;50.18;100354.56;126671;1098;103027;-81
2021/06/01 05:20:12;;;;;;;17.15;10.95;;;;;;;14.18;50.35;100361.89;126630;1099;102991;-81
2021/06/01 05:23:00;;;;;;;15.70;11.10;;;;;;;14.28;49.97;100354.44;126611;1100;103005;-80
2021/06/01 05:25:49;;;;;;;19.57;10.67;;;;;;;14.43;50.04;100364.27;126607;1093;103063;-80
2021/06/01 05:28:37;;;;;;;16.70;10.63;;;;;;;14.61;49.89;100357.31;126576;1093;102815;-81
2021/06/01 05:34:18;;;;;;;16.30;10.27;;;;;;;14.91;49.41;100356.78;126607;1098;103097;-80
2021/06/01 05:37:05;;;;;;;26.03;15.27;;;;;;;15.14;49.18;100360.91;126663;1093;102853;-80
2021/06/01 05:39:56;;;;;;;18.07;12.00;;;;;;;15.31;48.69;100358.30;126472;1098;103080;-82
2021/06/01 05:42:44;;;;;;;18.20;10.97;;;;;;;15.42;48.14;100362.08;126567;1098;103097;-81
2021/06/01 05:45:32;;;;;;;18.97;11.17;;;;;;;15.46;48.33;100356.69;126639;1099;103030;-79
2021/06/01 05:48:20;;;;;;;13.10;10.37;;;;;;;15.50;48.04;100350.34;126919;1098;102969;-79
2021/06/01 05:51:08;;;;;;;12.83;10.17;;;;;;;15.51;47.70;100352.89;126552;1098;103126;-81
2021/06/01 05:53:56;;;;;;;16.50;10.67;;;;;;;15.57;47.45;100354.34;126661;1098;103441;-82
2021/06/01 05:56:45;;;;;;;12.93;9.67;;;;;;;15.57;47.51;100352.57;126629;1099;103117;-80
2021/06/01 05:59:34;;;;;;;17.53;9.17;;;;;;;15.63;47.57;100349.68;126624;1098;102943;-81
2021/06/01 06:02:23;;;;;;;15.83;9.90;;;;;;;15.65;47.21;100357.48;126706;1099;103028;-80
2021/06/01 06:05:13;;;;;;;19.07;9.80;;;;;;;15.67;46.96;100350.37;126623;1098;103007;-81
2021/06/01 06:08:21;;;;;;;14.80;10.03;;;;;;;15.78;46.97;100348.02;126639;1098;101058;-81
2021/06/01 06:11:10;;;;;;;14.70;9.95;;;;;;;15.88;47.09;100348.40;126598;1098;102935;-80
2021/06/01 06:13:58;;;;;;;17.05;9.60;;;;;;;16.00;46.83;100347.77;126647;1100;102924;-80
2021/06/01 06:16:51;;;;;;;17.33;10.10;;;;;;;16.05;46.83;100348.36;126530;1100;102980;-80
2021/06/01 06:19:43;;;;;;;14.87;9.67;;;;;;;16.21;46.44;100351.88;126689;1098;102953;-82
2021/06/01 06:22:31;;;;;;;14.47;9.10;;;;;;;16.39;46.07;100355.30;126655;1098;101727;-82
2021/06/01 06:25:19;;;;;;;16.80;10.37;;;;;;;16.55;46.43;100350.05;126597;1098;103001;-82
2021/06/01 06:28:07;;;;;;;16.30;10.47;;;;;;;16.76;46.42;100348.88;126511;1098;103019;-82
2021/06/01 06:30:55;;;;;;;17.87;9.20;;;;;;;16.96;46.07;100349.54;126455;1098;102963;-82
2021/06/01 06:33:42;;;;;;;;;;;;;;;17.02;45.58;100354.45;126474;1101;101320;-82
2021/06/01 06:36:30;;;;;;;15.93;9.35;;;;;;;17.09;45.38;100353.19;126589;1100;102926;-81
2021/06/01 06:39:19;;;;;;;17.30;8.73;;;;;;;17.27;45.17;100352.13;126353;1098;103048;-82
2021/06/01 06:42:08;;;;;;;21.07;9.73;;;;;;;17.48;45.28;100350.86;126543;1098;102982;-82
2021/06/01 06:44:56;;;;;;;19.83;9.90;;;;;;;17.78;45.02;100352.66;126448;1100;103007;-82
2021/06/01 06:48:09;;;;;;;13.83;8.78;;;;;;;18.00;44.05;100346.91;126597;1098;102959;-81
2021/06/01 06:50:57;;;;;;;13.73;8.10;;;;;;;18.20;43.69;100348.33;126654;1098;102957;-81
2021/06/01 06:53:54;;;;;;;14.73;8.70;;;;;;;18.56;43.20;100348.66;126414;1093;102998;-80
2021/06/01 06:56:42;;;;;;;14.57;7.67;;;;;;;18.97;42.75;100346.02;126645;1098;103030;-81
2021/06/01 06:59:30;;;;;;;14.33;8.07;;;;;;;19.42;42.33;100337.79;126676;1098;102979;-82
2021/06/01 07:02:19;;;;;;;12.37;8.00;;;;;;;19.77;41.89;100341.56;126692;1099;101665;-80
2021/06/01 07:05:11;;;;;;;12.00;7.47;;;;;;;20.07;41.26;100330.63;126719;1098;103007;-80
2021/06/01 07:08:00;;;;;;;15.40;7.20;;;;;;;20.46;40.83;100337.58;126547;1098;103135;-80
2021/06/01 07:10:47;;;;;;;11.43;7.53;;;;;;;20.97;39.61;100331.24;126580;1098;102949;-80
2021/06/01 07:13:56;;;;;;;11.80;8.80;;;;;;;21.50;39.55;100329.91;126582;1099;101512;-81
2021/06/01 07:16:45;;;;;;;10.80;6.63;;;;;;;22.10;39.09;100325.32;126471;1098;103021;-80
2021/06/01 07:19:34;;;;;;;10.00;6.73;;;;;;;22.36;37.98;100318.77;126589;1098;103390;-80
2021/06/01 07:22:22;;;;;;;8.20;6.37;;;;;;;22.45;37.26;100328.67;126617;1098;103032;-80
2021/06/01 07:25:10;;;;;;;12.57;5.80;;;;;;;22.43;36.92;100327.92;126531;1098;103066;-81
2021/06/01 07:27:58;;;;;;;8.93;5.70;;;;;;;22.48;36.92;100327.58;126759;1098;102939;-81
2021/06/01 07:30:46;;;;;;;14.03;6.50;;;;;;;22.57;36.66;100326.83;126651;1098;103088;-81
2021/06/01 07:33:35;;;;;;;17.77;8.60;;;;;;;22.57;36.87;100325.02;126538;1098;101773;-80
2021/06/01 07:36:23;;;;;;;10.55;6.20;;;;;;;22.64;36.31;100322.72;126471;1093;102925;-80
2021/06/01 07:39:11;;;;;;;9.87;5.47;;;;;;;22.72;35.72;100314.11;126373;1099;102974;-80
2021/06/01 07:41:59;;;;;;;12.23;5.17;;;;;;;22.96;35.46;100324.56;126624;1098;102952;-80
2021/06/01 07:44:46;;;;;;;10.97;5.80;;;;;;;23.53;35.12;100315.36;126560;1100;101824;-80
2021/06/01 07:47:35;;;;;;;11.87;5.30;;;;;;;24.59;34.58;100316.69;126551;1099;103053;-80
2021/06/01 07:50:23;;;;;;;11.03;5.43;;;;;;;25.93;33.17;100318.64;126498;1093;102837;-81
2021/06/01 07:53:10;;;;;;;8.73;4.60;;;;;;;26.91;32.16;100300.07;126693;1098;102928;-82
2021/06/01 07:55:58;;;;;;;7.23;4.00;;;;;;;27.68;30.96;100299.42;126572;1098;103008;-81
2021/06/01 07:58:50;;;;;;;10.03;4.43;;;;;;;27.84;29.47;100297.84;126634;1098;102978;-82
2021/06/01 08:01:38;;;;;;;9.13;4.40;;;;;;;28.05;29.92;100302.80;126564;1098;103334;-82
2021/06/01 08:04:26;;;;;;;7.50;4.10;;;;;;;28.54;28.66;100301.14;126561;1098;102905;-81
2021/06/01 08:07:13;;;;;;;16.43;6.83;;;;;;;29.61;28.71;100294.87;126603;1098;103376;-81
2021/06/01 08:10:03;;;;;;;6.77;4.40;;;;;;;30.86;27.20;100292.16;126546;1098;103085;-81
2021/06/01 08:12:53;;;;;;;7.15;3.60;;;;;;;30.91;25.98;100299.73;126653;1098;101699;-81
2021/06/01 08:15:44;;;;;;;6.73;3.93;;;;;;;30.68;25.96;100305.08;126625;1098;103321;-82
2021/06/01 08:18:40;;;;;;;8.07;3.80;;;;;;;31.40;25.71;100288.55;126634;1100;103077;-81
2021/06/01 08:24:52;;;;;;;4.93;3.20;;;;;;;33.62;23.55;100295.16;126411;1101;102848;-81
2021/06/01 08:27:40;;;;;;;5.13;3.13;;;;;;;34.54;22.67;100287.54;126244;1101;103016;-82
2021/06/01 08:30:29;;;;;;;4.43;2.77;;;;;;;34.80;21.62;100284.03;126163;1101;102741;-84
2021/06/01 08:33:23;;;;;;;5.27;2.50;;;;;;;35.18;21.86;100282.64;126067;1101;103107;-83
2021/06/01 08:36:10;;;;;;;5.80;2.50;;;;;;;35.86;21.30;100270.50;125956;1104;103136;-83
2021/06/01 08:39:00;;;;;;;4.27;2.60;;;;;;;36.22;21.31;100271.81;126064;1104;103131;-84
2021/06/01 08:41:48;;;;;;;3.80;2.40;;;;;;;36.41;20.05;100262.77;125959;1104;103135;-83
2021/06/01 08:44:36;;;;;;;4.07;2.23;;;;;;;36.54;19.88;100272.73;126155;1101;103502;-84
2021/06/01 08:47:25;;;;;;;2.83;2.07;;;;;;;36.76;19.57;100262.34;125953;1101;102967;-83
2021/06/01 08:50:14;;;;;;;3.80;2.00;;;;;;;36.71;18.80;100262.18;126007;1101;103112;-84
2021/06/01 08:53:02;;;;;;;3.37;2.03;;;;;;;36.71;18.61;100267.61;125787;1104;103120;-83
2021/06/01 08:55:50;;;;;;;4.93;2.20;;;;;;;36.44;18.86;100261.49;125928;1096;102963;-84
2021/06/01 08:58:38;;;;;;;3.20;1.80;;;;;;;36.78;18.86;100265.67;125951;1093;102999;-83
2021/06/01 09:01:25;;;;;;;6.07;2.10;;;;;;;37.14;18.00;100263.11;126371;1093;101962;-83
2021/06/01 09:04:13;;;;;;;5.83;2.40;;;;;;;37.23;18.28;100260.13;126365;1098;103812;-84
2021/06/01 09:07:13;;;;;;;8.30;2.10;;;;;;;37.05;17.17;100258.19;126316;1093;102972;-83
2021/06/01 09:22:42;;;;;;;6.63;1.60;;;;;;;35.82;16.88;100255.66;126381;1098;103100;-83
2021/06/01 09:25:40;;;;;;;2.20;1.05;;;;;;;36.00;15.16;100255.00;126304;1098;102954;-83
2021/06/01 09:28:27;;;;;;;1.80;1.10;;;;;;;35.48;15.46;100255.95;126267;1100;102769;-84
2021/06/01 09:31:18;;;;;;;2.47;2.03;;;;;;;35.63;15.45;100259.27;126274;1099;103022;-84
2021/06/01 09:34:07;;;;;;;3.40;1.60;;;;;;;35.86;15.80;100256.09;126273;1098;103030;-84
2021/06/01 09:37:14;;;;;;;3.33;2.00;;;;;;;35.31;15.04;100256.36;126420;1093;102773;-84
2021/06/01 09:40:14;;;;;;;4.65;2.35;;;;;;;34.42;15.28;100250.41;126450;1098;103003;-84
2021/06/01 09:43:07;;;;;;;1.97;1.37;;;;;;;33.43;16.09;100249.89;126520;1093;102960;-84
2021/06/01 09:45:55;;;;;;;2.40;1.43;;;;;;;32.47;16.95;100254.78;126554;1099;101054;-84
2021/06/01 09:48:42;;;;;;;2.60;1.53;;;;;;;31.75;17.61;100244.73;126360;1098;103120;-84
2021/06/01 09:51:36;;;;;;;2.63;1.60;;;;;;;31.28;18.17;100247.75;126380;1098;102756;-85
2021/06/01 09:54:49;;;;;;;2.27;1.50;;;;;;;30.76;18.25;100247.66;126365;1098;102937;-84
2021/06/01 09:57:44;;;;;;;5.30;1.30;;;;;;;30.33;19.31;100257.98;126608;1098;102971;-84
2021/06/01 10:00:35;;;;;;;5.67;2.00;;;;;;;29.99;19.59;100248.39;126372;1098;103095;-84
2021/06/01 10:03:27;;;;;;;3.17;1.80;;;;;;;29.35;19.68;100247.53;126357;1098;101792;-85
2021/06/01 10:06:17;;;;;;;5.27;2.10;;;;;;;28.75;20.30;100249.72;126468;1098;103544;-85
2021/06/01 10:09:10;;;;;;;4.53;2.23;;;;;;;28.34;20.98;100256.83;126649;1098;101850;-85
2021/06/01 10:12:00;;;;;;;2.50;1.70;;;;;;;27.69;21.02;100258.22;126638;1098;103002;-84
2021/06/01 10:14:48;;;;;;;4.23;2.03;;;;;;;27.10;21.61;100257.10;126457;1098;103077;-84
2021/06/01 10:17:42;;;;;;;3.87;1.93;;;;;;;26.58;21.65;100258.80;126546;1100;103048;-84
2021/06/01 10:20:32;;;;;;;3.40;1.80;;;;;;;26.09;22.28;100262.73;126479;1098;100909;-85
2021/06/01 10:23:25;;;;;;;6.50;2.43;;;;;;;25.55;22.92;100261.64;126461;1101;103090;-85
2021/06/01 10:26:13;;;;;;;4.20;2.00;;;;;;;25.08;23.29;100261.58;126587;1098;102895;-85
2021/06/01 10:29:02;;;;;;;4.13;2.17;;;;;;;24.52;23.00;100262.23;126491;1093;102959;-86
2021/06/01 10:32:02;;;;;;;4.17;2.00;;;;;;;24.14;23.63;100262.13;126514;1100;102803;-86
2021/06/01 10:34:58;;;;;;;3.35;1.95;;;;;;;23.82;23.92;100268.45;126683;1098;103062;-85
2021/06/01 10:50:48;;;;;;;4.10;2.07;;;;;;;23.25;25.08;100253.81;126668;1093;103007;-83
2021/06/01 10:53:41;;;;;;;5.33;1.90;;;;;;;22.96;25.17;100255.41;126567;1101;103133;-83
2021/06/01 10:56:52;;;;;;;6.40;2.10;;;;;;;22.61;24.95;100264.45;126659;1100;103016;-83
2021/06/01 10:59:49;;;;;;;3.05;1.90;;;;;;;22.21;25.66;100257.07;126723;1098;103270;-82
2021/06/01 11:02:36;;;;;;;13.50;2.60;;;;;;;21.83;26.48;100260.09;126700;1098;102933;-82
2021/06/01 11:05:26;;;;;;;5.50;1.80;;;;;;;21.53;26.92;100267.78;126659;1099;103137;-82
2021/06/01 11:08:34;;;;;;;7.50;2.30;;;;;;;21.23;27.25;100284.23;126676;1098;102989;-81
2021/06/01 11:11:33;;;;;;;4.13;2.17;;;;;;;20.92;28.00;100275.91;126621;1099;102995;-83
2021/06/01 11:14:50;;;;;;;4.70;1.97;;;;;;;20.78;28.19;100270.78;126773;1099;102968;-85
2021/06/01 11:18:16;;;;;;;8.10;2.50;;;;;;;20.58;28.83;100266.11;126708;1093;103120;-85
2021/06/01 11:21:33;;;;;;;7.60;2.50;;;;;;;20.47;29.50;100269.57;126454;1098;103063;-80
2021/06/01 11:33:28;;;;;;;4.10;2.07;;;;;;;20.32;29.53;100276.78;126637;1099;102978;-80
2021/06/01 11:36:20;;;;;;;2.93;2.00;;;;;;;20.28;29.12;100263.84;126555;1098;103011;-80
2021/06/01 11:39:32;;;;;;;6.37;2.53;;;;;;;20.31;29.19;100272.45;126634;1100;100997;-80
2021/06/01 11:46:10;;;;;;;6.43;2.40;;;;;;;20.11;29.79;100265.94;126363;1098;104567;-77
2021/06/01 11:52:08;;;;;;;7.67;2.60;;;;;;;19.95;30.11;100267.97;126398;1098;102949;-77
2021/06/01 11:54:55;;;;;;;5.70;2.30;;;;;;;19.87;30.20;100272.94;126285;1098;103001;-77
2021/06/01 12:02:02;;;;;;;6.67;3.10;;;;;;;19.77;30.17;100275.41;126400;1099;102964;-77
2021/06/01 12:04:13;;;;;;;5.50;2.30;;;;;;;19.58;30.34;100270.55;126641;1098;102936;-77
2021/06/01 12:19:30;;;;;;;4.37;2.37;;;;;;;19.36;30.71;100270.27;126328;1100;103111;-76
2021/06/01 12:22:18;;;;;;;6.07;2.70;;;;;;;19.28;30.91;100289.31;126328;1093;103479;-76
2021/06/01 12:25:10;;;;;;;7.20;2.70;;;;;;;19.20;30.73;100278.39;126208;1098;103033;-76
2021/06/01 12:28:08;;;;;;;4.30;2.07;;;;;;;19.14;30.79;100270.88;126337;1100;103033;-76
2021/06/01 12:31:02;;;;;;;5.70;2.20;;;;;;;19.13;31.12;100274.48;126343;1098;103091;-76
2021/06/01 12:34:00;;;;;;;7.00;2.27;;;;;;;19.13;31.12;100271.83;126509;1098;103082;-76
2021/06/01 12:41:40;;;;;;;4.17;2.30;;;;;;;19.10;31.25;100277.33;126497;1098;102979;-76
2021/06/01 12:43:49;;;;;;;5.17;2.00;;;;;;;19.12;31.59;100271.94;126518;1098;103123;-78
2021/06/01 12:46:59;;;;;;;7.80;2.97;;;;;;;19.22;32.07;100271.23;126292;1099;104186;-77
2021/06/01 13:09:24;;;;;;;6.67;2.30;;;;;;;19.20;32.90;100265.17;126677;1098;102808;-80
2021/06/01 13:12:19;;;;;;;4.87;2.60;;;;;;;19.32;32.92;100263.50;126752;1098;102958;-80
2021/06/01 13:21:42;;;;;;;7.47;2.80;;;;;;;19.45;32.92;100259.08;126650;1098;102958;-80
2021/06/01 13:31:10;;;;;;;5.20;2.70;;;;;;;19.61;32.38;100261.55;126659;1098;102915;-80
2021/06/01 13:46:24;;;;;;;3.40;2.23;;;;;;;19.98;31.13;100262.45;126635;1093;102538;-80
2021/06/01 13:52:34;;;;;;;5.00;2.30;;;;;;;20.03;31.09;100273.55;126502;1101;103434;-81
2021/06/01 13:55:33;;;;;;;4.80;2.53;;;;;;;19.97;31.09;100265.22;126509;1101;102966;-83
2021/06/01 13:58:53;;;;;;;4.13;2.13;;;;;;;19.92;31.03;100266.36;126681;1101;103007;-83
2021/06/01 14:15:19;;;;;;;7.70;2.57;;;;;;;19.98;31.10;100262.45;126101;1104;102927;-82
2021/06/01 14:21:14;;;;;;;5.97;2.13;;;;;;;19.99;31.69;100258.01;126208;1104;103165;-81
2021/06/01 14:30:31;;;;;;;3.60;2.20;;;;;;;20.13;31.63;100248.13;126207;1097;102960;-81
2021/06/01 14:55:34;;;;;;;6.33;2.60;;;;;;;20.45;30.67;100264.35;126535;1101;102994;-82
2021/06/01 15:41:01;;;;;;;9.50;2.30;;;;;;;19.28;32.21;100267.31;126162;1104;102933;-80
2021/06/01 15:47:49;;;;;;;11.30;2.70;;;;;;;19.17;32.82;100260.09;126589;1101;102994;-82
2021/06/01 15:50:55;;;;;;;4.00;2.40;;;;;;;19.18;32.34;100264.43;126684;1093;103231;-82
2021/06/01 15:55:05;;;;;;;5.57;2.23;;;;;;;19.13;32.73;100266.55;126767;1098;103058;-82
2021/06/01 16:14:05;;;;;;;5.23;2.23;;;;;;;18.87;32.96;100267.45;126809;1093;103081;-82
2021/06/01 16:22:54;;;;;;;3.80;2.40;;;;;;;18.76;33.17;100269.94;126605;1098;102959;-82
2021/06/01 17:03:24;;;;;;;3.13;2.40;;;;;;;18.42;34.34;100290.58;126447;1101;103080;-78
2021/06/01 17:06:45;;;;;;;8.43;2.70;;;;;;;18.37;34.40;100279.47;126737;1098;101979;-79
2021/06/01 17:12:19;;;;;;;7.67;2.57;;;;;;;18.32;34.57;100281.56;126508;1099;103368;-79
2021/06/01 17:15:09;;;;;;;4.37;2.53;;;;;;;18.28;34.53;100286.16;126474;1098;102866;-80
2021/06/01 17:18:09;;;;;;;3.93;2.30;;;;;;;18.24;34.57;100304.94;126487;1093;102960;-80
2021/06/01 17:22:06;;;;;;;7.17;2.30;;;;;;;18.20;34.64;100301.66;126697;1098;101220;-81
2021/06/01 17:30:53;;;;;;;6.47;2.30;;;;;;;18.07;34.96;100311.27;126592;1098;102940;-80
2021/06/01 17:36:54;;;;;;;8.15;3.08;;;;;;;17.96;35.33;100311.11;126382;1101;103123;-80
2021/06/01 17:39:42;;;;;;;7.17;2.90;;;;;;;17.90;35.45;100307.03;126252;1101;103112;-81